createdAt,value
2023-03-12T03:59:11.228Z,0.00
2023-03-12T04:00:11.172Z,0.00
2023-03-12T04:01:11.155Z,0.00
2023-03-12T04:02:11.154Z,0.00
2023-03-12T04:03:11.156Z,0.00
2023-03-12T04:04:11.160Z,0.00
2023-03-12T04:05:11.240Z,0.00
2023-03-12T04:06:11.116Z,0.00
2023-03-12T04:07:11.097Z,0.00
2023-03-12T04:08:11.125Z,0.00
2023-03-12T04:09:11.100Z,0.00
2023-03-12T04:10:11.098Z,0.00
2023-03-12T04:11:11.089Z,0.00
2023-03-12T04:12:11.105Z,0.00
2023-03-12T04:13:11.069Z,0.00
2023-03-12T04:14:11.052Z,0.00
2023-03-12T04:15:11.083Z,0.00
2023-03-12T04:16:11.164Z,0.00
2023-03-12T04:17:11.070Z,0.00
2023-03-12T04:18:11.063Z,0.00
2023-03-12T04:19:11.036Z,0.00
2023-03-12T04:20:11.030Z,0.00
2023-03-12T04:21:11.034Z,0.00
2023-03-12T04:22:11.039Z,0.00
2023-03-12T04:23:11.010Z,0.00
2023-03-12T04:24:11.007Z,0.00
2023-03-12T04:25:11.012Z,0.00
2023-03-12T04:26:11.004Z,0.00
2023-03-12T04:27:11.031Z,0.00
2023-03-12T04:28:10.988Z,0.00
2023-03-12T04:29:10.980Z,0.00
2023-03-12T04:30:11.020Z,0.00
2023-03-12T04:31:11.044Z,0.00
2023-03-12T04:32:10.984Z,0.00
2023-03-12T04:33:10.972Z,0.00
2023-03-12T04:34:13.327Z,0.00
2023-03-12T04:35:10.964Z,0.00
2023-03-12T04:36:11.069Z,0.00
2023-03-12T04:37:10.950Z,0.00
2023-03-12T04:38:10.939Z,0.00
2023-03-12T04:39:10.953Z,0.00
2023-03-12T04:40:10.936Z,0.00
2023-03-12T04:41:10.950Z,0.00
2023-03-12T04:42:10.925Z,0.00
2023-03-12T04:43:10.975Z,0.00
2023-03-12T04:44:12.855Z,0.00
2023-03-12T04:45:10.926Z,0.00
2023-03-12T04:46:11.012Z,0.00
2023-03-12T04:47:10.982Z,0.00
2023-03-12T04:48:10.919Z,0.00
2023-03-12T04:49:10.928Z,0.00
2023-03-12T04:50:10.918Z,0.00
2023-03-12T04:51:10.894Z,0.00
2023-03-12T04:52:10.897Z,0.00
2023-03-12T04:53:10.918Z,0.00
2023-03-12T04:54:10.896Z,0.00
2023-03-12T04:55:10.890Z,0.00
2023-03-12T04:56:10.865Z,0.00
2023-03-12T04:57:10.876Z,0.00
2023-03-12T04:58:10.873Z,0.00
2023-03-12T04:59:10.884Z,0.00
2023-03-12T05:00:10.883Z,0.00
2023-03-12T05:01:10.850Z,0.00
2023-03-12T05:02:10.847Z,0.00
2023-03-12T05:03:10.979Z,0.00
2023-03-12T05:04:10.888Z,0.00
2023-03-12T05:05:10.855Z,0.00
2023-03-12T05:06:10.834Z,0.00
2023-03-12T05:07:10.829Z,0.00
2023-03-12T05:08:10.834Z,0.00
2023-03-12T05:09:10.817Z,0.00
2023-03-12T05:10:10.816Z,0.00
2023-03-12T05:11:10.806Z,0.00
2023-03-12T05:12:10.807Z,0.00
2023-03-12T05:13:10.810Z,0.00
2023-03-12T05:14:10.820Z,0.00
2023-03-12T05:15:10.780Z,0.00
2023-03-12T05:16:10.849Z,0.00
2023-03-12T05:17:10.791Z,0.00
2023-03-12T05:18:10.781Z,0.00
2023-03-12T05:19:10.788Z,0.00
2023-03-12T05:20:10.772Z,0.00
2023-03-12T05:21:10.785Z,0.00
2023-03-12T05:22:10.781Z,0.00
2023-03-12T05:23:10.755Z,0.00
2023-03-12T05:24:10.742Z,0.00
2023-03-12T05:25:10.793Z,0.00
2023-03-12T05:26:10.748Z,0.00
2023-03-12T05:27:10.727Z,4.00
2023-03-12T05:28:10.730Z,4.00
2023-03-12T05:29:10.737Z,0.00
2023-03-12T05:30:10.721Z,4.00
2023-03-12T05:31:10.833Z,4.00
2023-03-12T05:32:10.746Z,4.00
2023-03-12T05:33:10.722Z,4.00
2023-03-12T05:34:10.705Z,8.00
2023-03-12T05:35:10.733Z,4.00
2023-03-12T05:36:10.778Z,8.00
2023-03-12T05:37:10.697Z,8.00
2023-03-12T05:38:10.697Z,12.00
2023-03-12T05:39:10.680Z,12.00
2023-03-12T05:40:10.683Z,12.00
2023-03-12T05:41:10.684Z,16.00
2023-03-12T05:42:10.673Z,16.00
2023-03-12T05:43:10.665Z,20.00
2023-03-12T05:44:10.672Z,28.00
2023-03-12T05:45:10.667Z,28.00
2023-03-12T05:46:10.725Z,32.00
2023-03-12T05:47:10.646Z,36.00
2023-03-12T05:48:10.643Z,36.00
2023-03-12T05:49:10.652Z,40.00
2023-03-12T05:50:10.716Z,44.00
2023-03-12T05:51:10.657Z,44.00
2023-03-12T05:52:10.624Z,52.00
2023-03-12T05:53:10.671Z,52.00
2023-03-12T05:54:10.627Z,56.00
2023-03-12T05:55:10.631Z,64.00
2023-03-12T05:56:10.629Z,68.00
2023-03-12T05:57:10.631Z,72.00
2023-03-12T05:58:10.594Z,72.00
2023-03-12T05:59:10.626Z,76.00
2023-03-12T06:00:10.601Z,80.00
2023-03-12T06:01:10.602Z,84.00
2023-03-12T06:02:10.680Z,88.00
2023-03-12T06:03:10.653Z,92.00
2023-03-12T06:04:10.603Z,100.00
2023-03-12T06:05:10.593Z,104.00
2023-03-12T06:06:10.580Z,112.00
2023-03-12T06:07:10.569Z,120.00
2023-03-12T06:08:10.576Z,128.00
2023-03-12T06:09:10.568Z,132.00
2023-03-12T06:10:10.569Z,144.00
2023-03-12T06:11:10.536Z,152.00
2023-03-12T06:12:10.554Z,160.00
2023-03-12T06:13:10.541Z,172.00
2023-03-12T06:14:10.554Z,184.00
2023-03-12T06:15:10.562Z,196.00
2023-03-12T06:16:10.560Z,208.00
2023-03-12T06:17:10.507Z,216.00
2023-03-12T06:18:10.513Z,224.00
2023-03-12T06:19:10.529Z,228.00
2023-03-12T06:20:10.500Z,236.00
2023-03-12T06:21:10.511Z,244.00
2023-03-12T06:22:10.493Z,256.00
2023-03-12T06:23:10.527Z,268.00
2023-03-12T06:24:10.505Z,288.00
2023-03-12T06:25:10.479Z,304.00
2023-03-12T06:26:10.482Z,320.00
2023-03-12T06:27:10.469Z,336.00
2023-03-12T06:28:10.481Z,352.00
2023-03-12T06:29:10.479Z,360.00
2023-03-12T06:30:10.465Z,376.00
2023-03-12T06:31:10.530Z,388.00
2023-03-12T06:32:10.451Z,392.00
2023-03-12T06:33:10.442Z,396.00
2023-03-12T06:34:10.464Z,396.00
2023-03-12T06:35:10.437Z,388.00
2023-03-12T06:36:10.430Z,380.00
2023-03-12T06:37:10.434Z,372.00
2023-03-12T06:38:10.468Z,364.00
2023-03-12T06:39:10.452Z,360.00
2023-03-12T06:40:10.449Z,360.00
2023-03-12T06:41:10.423Z,356.00
2023-03-12T06:42:10.395Z,356.00
2023-03-12T06:43:10.416Z,364.00
2023-03-12T06:44:10.402Z,372.00
2023-03-12T06:45:10.396Z,388.00
2023-03-12T06:46:10.417Z,388.00
2023-03-12T06:47:10.389Z,384.00
2023-03-12T06:48:10.393Z,384.00
2023-03-12T06:49:10.396Z,396.00
2023-03-12T06:50:10.382Z,420.00
2023-03-12T06:51:10.393Z,452.00
2023-03-12T06:52:10.377Z,480.00
2023-03-12T06:53:10.359Z,520.00
2023-03-12T06:54:10.369Z,568.00
2023-03-12T06:55:10.378Z,628.00
2023-03-12T06:56:10.358Z,724.00
2023-03-12T06:57:10.385Z,840.00
2023-03-12T06:58:10.338Z,920.00
2023-03-12T06:59:10.369Z,948.00
2023-03-12T07:00:10.337Z,940.00
2023-03-12T07:01:10.319Z,912.00
2023-03-12T07:02:10.356Z,900.00
2023-03-12T07:03:10.318Z,900.00
2023-03-12T07:04:10.333Z,912.00
2023-03-12T07:05:10.366Z,940.00
2023-03-12T07:06:10.318Z,976.00
2023-03-12T07:07:10.302Z,1024.00
2023-03-12T07:08:10.290Z,1052.00
2023-03-12T07:09:10.303Z,1076.00
2023-03-12T07:10:10.369Z,1116.00
2023-03-12T07:11:10.322Z,1140.00
2023-03-12T07:12:10.281Z,1152.00
2023-03-12T07:13:10.284Z,1144.00
2023-03-12T07:14:10.280Z,1112.00
2023-03-12T07:15:10.278Z,1072.00
2023-03-12T07:16:10.301Z,1064.00
2023-03-12T07:17:10.284Z,1088.00
2023-03-12T07:18:10.263Z,1124.00
2023-03-12T07:19:10.268Z,1136.00
2023-03-12T07:20:10.259Z,1092.00
2023-03-12T07:21:10.251Z,996.00
2023-03-12T07:22:10.251Z,896.00
2023-03-12T07:23:10.244Z,812.00
2023-03-12T07:24:10.238Z,768.00
2023-03-12T07:25:10.241Z,744.00
2023-03-12T07:26:10.251Z,728.00
2023-03-12T07:27:10.283Z,720.00
2023-03-12T07:28:10.224Z,716.00
2023-03-12T07:29:10.219Z,712.00
2023-03-12T07:30:10.228Z,720.00
2023-03-12T07:31:10.230Z,732.00
2023-03-12T07:32:10.222Z,772.00
2023-03-12T07:33:10.386Z,812.00
2023-03-12T07:34:10.386Z,848.00
2023-03-12T07:35:10.201Z,892.00
2023-03-12T07:36:10.333Z,956.00
2023-03-12T07:37:10.193Z,1044.00
2023-03-12T07:38:10.249Z,1132.00
2023-03-12T07:39:10.180Z,1192.00
2023-03-12T07:40:10.183Z,1200.00
2023-03-12T07:41:10.261Z,1156.00
2023-03-12T07:42:10.236Z,1084.00
2023-03-12T07:43:10.184Z,1012.00
2023-03-12T07:44:10.212Z,972.00
2023-03-12T07:45:10.284Z,976.00
2023-03-12T07:46:10.184Z,1024.00
2023-03-12T07:47:23.042Z,1092.00
2023-03-12T07:48:10.325Z,1152.00
2023-03-12T07:49:10.241Z,1192.00
2023-03-12T07:51:43.183Z,1184.00
2023-03-12T07:52:43.180Z,1160.00
2023-03-12T07:53:43.201Z,1160.00
2023-03-12T07:54:43.309Z,1192.00
2023-03-12T07:55:43.294Z,1228.00
2023-03-12T07:56:43.306Z,1260.00
2023-03-12T07:57:43.256Z,1296.00
2023-03-12T07:58:43.409Z,1332.00
2023-03-12T07:59:43.186Z,1372.00
2023-03-12T08:00:43.157Z,1428.00
2023-03-12T08:01:45.658Z,1496.00
2023-03-12T08:02:43.349Z,1532.00
2023-03-12T08:03:43.499Z,1468.00
2023-03-12T08:04:43.181Z,1320.00
2023-03-12T08:05:43.300Z,1180.00
2023-03-12T08:06:43.180Z,1104.00
2023-03-12T08:07:43.126Z,1092.00
2023-03-12T08:08:43.169Z,1116.00
2023-03-12T08:09:43.323Z,1160.00
2023-03-12T08:10:43.108Z,1204.00
2023-03-12T08:11:43.199Z,1224.00
2023-03-12T08:12:43.105Z,1244.00
2023-03-12T08:13:43.124Z,1292.00
2023-03-12T08:14:43.229Z,1356.00
2023-03-12T08:15:43.097Z,1380.00
2023-03-12T08:16:43.150Z,1364.00
2023-03-12T08:17:43.094Z,1336.00
2023-03-12T08:18:43.176Z,1344.00
2023-03-12T08:19:43.095Z,1380.00
2023-03-12T08:20:43.088Z,1420.00
2023-03-12T08:21:43.066Z,1424.00
2023-03-12T08:22:43.065Z,1400.00
2023-03-12T08:23:43.077Z,1380.00
2023-03-12T08:24:43.058Z,1396.00
2023-03-12T08:25:43.093Z,1448.00
2023-03-12T08:26:43.049Z,1516.00
2023-03-12T08:27:43.057Z,1532.00
2023-03-12T08:28:43.059Z,1504.00
2023-03-12T08:29:43.048Z,1468.00
2023-03-12T08:30:43.055Z,1476.00
2023-03-12T08:31:57.387Z,1500.00
2023-03-12T08:32:43.054Z,1520.00
2023-03-12T08:33:43.044Z,1556.00
2023-03-12T08:34:43.020Z,1648.00
2023-03-12T08:35:43.086Z,1752.00
2023-03-12T08:36:43.012Z,1788.00
2023-03-12T08:37:43.016Z,1716.00
2023-03-12T08:38:43.025Z,1624.00
2023-03-12T08:39:43.006Z,1588.00
2023-03-12T08:40:43.000Z,1616.00
2023-03-12T08:41:42.997Z,1636.00
2023-03-12T08:42:42.994Z,1616.00
2023-03-12T08:43:43.008Z,1556.00
2023-03-12T08:44:43.004Z,1508.00
2023-03-12T08:45:43.008Z,1528.00
2023-03-12T08:46:42.999Z,1624.00
2023-03-12T08:47:42.984Z,1732.00
2023-03-12T08:48:42.983Z,1788.00
2023-03-12T08:49:42.977Z,1824.00
2023-03-12T08:50:43.003Z,1880.00
2023-03-12T08:51:42.970Z,1972.00
2023-03-12T08:52:42.962Z,2016.00
2023-03-12T08:53:42.979Z,2004.00
2023-03-12T08:54:42.975Z,1980.00
2023-03-12T08:55:42.954Z,1924.00
2023-03-12T08:56:42.945Z,1856.00
2023-03-12T08:57:42.985Z,1752.00
2023-03-12T08:58:42.953Z,1612.00
2023-03-12T08:59:42.938Z,1472.00
2023-03-12T09:00:43.993Z,1368.00
2023-03-12T09:01:43.905Z,1300.00
2023-03-12T09:02:42.998Z,1268.00
2023-03-12T09:03:42.928Z,1316.00
2023-03-12T09:04:43.028Z,1404.00
2023-03-12T09:05:42.936Z,1468.00
2023-03-12T09:06:42.949Z,1488.00
2023-03-12T09:07:42.907Z,1516.00
2023-03-12T09:08:42.917Z,1588.00
2023-03-12T09:09:42.985Z,1704.00
2023-03-12T09:10:42.928Z,1768.00
2023-03-12T09:11:42.902Z,1752.00
2023-03-12T09:12:42.920Z,1696.00
2023-03-12T09:14:08.179Z,1616.00
2023-03-12T09:15:02.375Z,1544.00
2023-03-12T09:15:42.884Z,1536.00
2023-03-12T09:16:42.994Z,1528.00
2023-03-12T09:17:42.887Z,1564.00
2023-03-12T09:18:43.018Z,1688.00
2023-03-12T09:19:42.936Z,1820.00
2023-03-12T09:20:42.880Z,1840.00
2023-03-12T09:21:42.881Z,1784.00
2023-03-12T09:22:42.873Z,1840.00
2023-03-12T09:23:42.907Z,1988.00
2023-03-12T09:24:42.866Z,2100.00
2023-03-12T09:25:42.864Z,2180.00
2023-03-12T09:26:42.846Z,2236.00
2023-03-12T09:27:42.834Z,2236.00
2023-03-12T09:28:42.853Z,2160.00
2023-03-12T09:29:58.844Z,2064.00
2023-03-12T09:30:42.891Z,2052.00
2023-03-12T09:31:42.839Z,2092.00
2023-03-12T09:32:42.850Z,2124.00
2023-03-12T09:33:42.822Z,2140.00
2023-03-12T09:34:42.867Z,2164.00
2023-03-12T09:35:42.885Z,2216.00
2023-03-12T09:36:42.844Z,2312.00
2023-03-12T09:37:42.809Z,2396.00
2023-03-12T09:38:42.805Z,2436.00
2023-03-12T09:39:42.812Z,2412.00
2023-03-12T09:40:42.810Z,2344.00
2023-03-12T09:41:42.813Z,2224.00
2023-03-12T09:42:42.792Z,2072.00
2023-03-12T09:43:42.801Z,1896.00
2023-03-12T09:44:42.792Z,1724.00
2023-03-12T09:45:42.801Z,1648.00
2023-03-12T09:46:42.796Z,1592.00
2023-03-12T09:47:42.784Z,1532.00
2023-03-12T09:48:42.776Z,1440.00
2023-03-12T09:49:42.778Z,1384.00
2023-03-12T09:50:42.774Z,1392.00
2023-03-12T09:51:42.758Z,1328.00
2023-03-12T09:52:42.771Z,1304.00
2023-03-12T09:53:42.759Z,1308.00
2023-03-12T09:54:42.756Z,1304.00
2023-03-12T09:55:42.750Z,1336.00
2023-03-12T09:56:42.761Z,1352.00
2023-03-12T09:57:42.778Z,1352.00
2023-03-12T09:58:42.742Z,1464.00
2023-03-12T09:59:42.749Z,1572.00
2023-03-12T10:00:42.749Z,1712.00
2023-03-12T10:01:42.747Z,1832.00
2023-03-12T10:13:20.010Z,1644.00
2023-03-12T10:14:23.839Z,1656.00
2023-03-12T10:15:19.904Z,1508.00
2023-03-12T10:16:19.958Z,1308.00
2023-03-12T10:17:19.891Z,1232.00
2023-03-12T10:18:20.015Z,1148.00
2023-03-12T10:19:19.889Z,1184.00
2023-03-12T10:20:19.879Z,1160.00
2023-03-12T10:21:19.884Z,1172.00
2023-03-12T10:22:19.866Z,1200.00
2023-03-12T10:23:19.890Z,1152.00
2023-03-12T10:24:19.856Z,1340.00
2023-03-12T10:25:19.867Z,1404.00
2023-03-12T10:26:19.851Z,1384.00
2023-03-12T10:27:19.848Z,1340.00
2023-03-12T10:28:19.864Z,1380.00
2023-03-12T10:29:19.880Z,1324.00
2023-03-12T10:30:19.843Z,1292.00
2023-03-12T10:31:19.891Z,1264.00
2023-03-12T10:32:19.880Z,1184.00
2023-03-12T10:33:19.816Z,1308.00
2023-03-12T10:34:19.880Z,1408.00
2023-03-12T10:35:21.769Z,1444.00
2023-03-12T10:36:19.827Z,1468.00
2023-03-12T10:37:19.816Z,1412.00
2023-03-12T10:38:19.807Z,1560.00
2023-03-12T10:39:19.858Z,1584.00
2023-03-12T10:40:19.827Z,1564.00
2023-03-12T10:41:19.910Z,1452.00
2023-03-12T10:42:19.796Z,1452.00
2023-03-12T10:43:19.791Z,1452.00
2023-03-12T10:44:19.793Z,1348.00
2023-03-12T10:45:19.805Z,1520.00
2023-03-12T10:46:19.842Z,1400.00
2023-03-12T10:47:19.779Z,1316.00
2023-03-12T10:48:19.773Z,1320.00
2023-03-12T10:49:19.767Z,1428.00
2023-03-12T10:50:19.768Z,1640.00
2023-03-12T10:51:19.779Z,1752.00
2023-03-12T10:52:19.782Z,1664.00
2023-03-12T10:53:19.760Z,1796.00
2023-03-12T10:54:19.798Z,1688.00
2023-03-12T10:55:19.758Z,1652.00
2023-03-12T10:56:19.759Z,1476.00
2023-03-12T10:57:19.742Z,1508.00
2023-03-12T10:58:19.742Z,1388.00
2023-03-12T10:59:19.740Z,1420.00
2023-03-12T11:00:19.739Z,1492.00
2023-03-12T11:01:19.882Z,1536.00
2023-03-12T11:02:20.683Z,1624.00
2023-03-12T11:03:19.725Z,1560.00
2023-03-12T11:04:19.753Z,1708.00
2023-03-12T11:05:19.758Z,1524.00
2023-03-12T11:06:19.763Z,1412.00
2023-03-12T11:07:19.705Z,1324.00
2023-03-12T11:08:19.701Z,1492.00
2023-03-12T11:09:19.729Z,1488.00
2023-03-12T11:10:19.717Z,1456.00
2023-03-12T11:11:19.732Z,1444.00
2023-03-12T11:12:19.792Z,1496.00
2023-03-12T11:13:19.683Z,1628.00
2023-03-12T11:14:19.716Z,1544.00
2023-03-12T11:15:19.673Z,1388.00
2023-03-12T11:16:19.715Z,1248.00
2023-03-12T11:17:19.733Z,1068.00
2023-03-12T11:18:19.665Z,1000.00
2023-03-12T11:20:19.664Z,1256.00
2023-03-12T11:21:19.708Z,1312.00
2023-03-12T11:22:19.680Z,1104.00
2023-03-12T11:23:19.680Z,1024.00
2023-03-12T11:24:19.650Z,1092.00
2023-03-12T11:25:19.656Z,1080.00
2023-03-12T11:26:19.643Z,1000.00
2023-03-12T11:27:19.661Z,1024.00
2023-03-12T11:28:19.665Z,1192.00
2023-03-12T11:29:19.765Z,1360.00
2023-03-12T11:30:19.674Z,1404.00
2023-03-12T11:31:19.804Z,1344.00
2023-03-12T11:32:19.682Z,1340.00
2023-03-12T11:33:19.646Z,1244.00
2023-03-12T11:34:19.626Z,1292.00
2023-03-12T11:35:19.624Z,1260.00
2023-03-12T11:36:19.623Z,1216.00
2023-03-12T11:37:19.640Z,1028.00
2023-03-12T11:38:19.624Z,1088.00
2023-03-12T11:39:19.604Z,1048.00
2023-03-12T11:40:19.605Z,1056.00
2023-03-12T11:41:19.611Z,920.00
2023-03-12T11:42:19.584Z,1160.00
2023-03-12T11:43:32.419Z,1080.00
2023-03-12T11:44:19.602Z,1172.00
2023-03-12T11:45:19.582Z,1180.00
2023-03-12T11:46:19.645Z,1168.00
2023-03-12T11:47:19.590Z,1176.00
2023-03-12T11:48:19.595Z,1160.00
2023-03-12T11:49:19.575Z,1232.00
2023-03-12T11:50:19.557Z,1272.00
2023-03-12T11:51:19.689Z,1112.00
2023-03-12T11:52:19.561Z,1092.00
2023-03-12T11:53:19.582Z,1092.00
2023-03-12T11:54:19.549Z,1192.00
2023-03-12T11:55:19.536Z,1504.00
2023-03-12T11:56:19.555Z,1952.00
2023-03-12T11:57:19.538Z,2008.00
2023-03-12T11:58:19.530Z,2360.00
2023-03-12T11:59:19.622Z,1908.00
2023-03-12T12:00:19.574Z,1496.00
2023-03-12T12:01:19.545Z,1384.00
2023-03-12T12:02:19.605Z,1124.00
2023-03-12T12:03:19.557Z,1300.00
2023-03-12T12:04:19.574Z,1368.00
2023-03-12T12:05:19.537Z,1148.00
2023-03-12T12:06:19.497Z,968.00
2023-03-12T12:07:19.511Z,884.00
2023-03-12T12:08:19.510Z,988.00
2023-03-12T12:09:19.514Z,1144.00
2023-03-12T12:10:19.510Z,1504.00
2023-03-12T12:11:19.494Z,1908.00
2023-03-12T12:12:19.481Z,2004.00
2023-03-12T12:13:19.482Z,2032.00
2023-03-12T12:14:19.511Z,2040.00
2023-03-12T12:15:19.472Z,2040.00
2023-03-12T12:16:19.506Z,1612.00
2023-03-12T12:17:19.504Z,1268.00
2023-03-12T12:18:19.483Z,1096.00
2023-03-12T12:19:19.482Z,1204.00
2023-03-12T12:20:19.544Z,1352.00
2023-03-12T12:21:19.470Z,1472.00
2023-03-12T12:22:19.482Z,1548.00
2023-03-12T12:23:19.450Z,1472.00
2023-03-12T12:24:19.453Z,1292.00
2023-03-12T12:25:19.465Z,1188.00
2023-03-12T12:26:19.462Z,1048.00
2023-03-12T12:27:19.434Z,864.00
2023-03-12T12:28:19.438Z,888.00
2023-03-12T12:29:19.439Z,940.00
2023-03-12T12:30:19.431Z,1048.00
2023-03-12T12:31:19.477Z,1148.00
2023-03-12T12:32:19.458Z,1216.00
2023-03-12T12:33:19.435Z,1120.00
2023-03-12T12:34:19.422Z,1192.00
2023-03-12T12:35:19.420Z,1092.00
2023-03-12T12:36:19.433Z,1076.00
2023-03-12T12:37:19.428Z,1068.00
2023-03-12T12:38:19.402Z,1112.00
2023-03-12T12:39:19.404Z,1076.00
2023-03-12T12:40:19.387Z,968.00
2023-03-12T12:41:19.383Z,888.00
2023-03-12T12:42:19.379Z,1008.00
2023-03-12T12:43:19.400Z,1004.00
2023-03-12T12:44:19.384Z,1004.00
2023-03-12T12:45:19.383Z,968.00
2023-03-12T12:46:19.461Z,904.00
2023-03-12T12:47:19.357Z,772.00
2023-03-12T12:48:19.365Z,800.00
2023-03-12T12:49:19.371Z,912.00
2023-03-12T12:50:19.357Z,1040.00
2023-03-12T12:51:19.348Z,948.00
2023-03-12T12:52:19.351Z,856.00
2023-03-12T12:53:19.352Z,804.00
2023-03-12T12:54:19.371Z,944.00
2023-03-12T12:55:19.348Z,976.00
2023-03-12T12:56:19.333Z,1072.00
2023-03-12T12:57:19.325Z,1004.00
2023-03-12T12:58:19.326Z,1028.00
2023-03-12T12:59:19.340Z,1064.00
2023-03-12T13:00:19.318Z,1228.00
2023-03-12T13:01:19.393Z,1484.00
2023-03-12T13:02:19.323Z,1680.00
2023-03-12T13:03:19.345Z,1428.00
2023-03-12T13:04:19.415Z,1304.00
2023-03-12T13:05:19.329Z,1240.00
2023-03-12T13:06:19.298Z,1488.00
2023-03-12T13:07:19.287Z,1872.00
2023-03-12T13:08:19.314Z,2136.00
2023-03-12T13:09:19.300Z,2224.00
2023-03-12T13:11:20.841Z,2280.00
2023-03-12T13:13:52.293Z,1508.00
2023-03-12T13:14:52.278Z,1404.00
2023-03-12T13:15:52.355Z,1264.00
2023-03-12T13:16:52.271Z,1336.00
2023-03-12T13:17:52.276Z,1200.00
2023-03-12T13:18:52.272Z,1192.00
2023-03-12T13:20:00.642Z,1168.00
2023-03-12T13:20:52.288Z,1504.00
2023-03-12T13:21:52.256Z,1660.00
2023-03-12T13:22:52.256Z,1452.00
2023-03-12T13:23:52.255Z,1948.00
2023-03-12T13:24:52.274Z,2492.00
2023-03-12T13:25:52.244Z,2412.00
2023-03-12T13:26:52.277Z,1704.00
2023-03-12T13:27:52.232Z,1816.00
2023-03-12T13:28:56.854Z,1756.00
2023-03-12T13:29:52.255Z,1820.00
2023-03-12T13:30:52.231Z,1832.00
2023-03-12T13:31:52.221Z,1700.00
2023-03-12T13:32:52.314Z,1428.00
2023-03-12T13:33:52.221Z,1380.00
2023-03-12T13:34:52.334Z,1376.00
2023-03-12T13:35:52.260Z,1588.00
2023-03-12T13:36:52.221Z,2092.00
2023-03-12T13:37:52.242Z,2344.00
2023-03-12T13:38:52.194Z,2216.00
2023-03-12T13:39:52.211Z,2420.00
2023-03-12T13:40:52.232Z,2760.00
2023-03-12T13:41:52.221Z,3248.00
2023-03-12T13:42:52.183Z,3772.00
2023-03-12T13:43:52.197Z,4624.00
2023-03-12T13:44:52.242Z,5260.00
2023-03-12T13:45:52.183Z,5200.00
2023-03-12T13:46:52.198Z,4740.00
2023-03-12T13:47:52.168Z,4072.00
2023-03-12T13:48:52.156Z,3580.00
2023-03-12T13:49:52.179Z,2716.00
2023-03-12T13:50:52.188Z,2600.00
2023-03-12T13:51:52.167Z,2736.00
2023-03-12T13:52:52.148Z,3116.00
2023-03-12T13:53:52.147Z,3608.00
2023-03-12T13:54:52.150Z,3328.00
2023-03-12T13:55:52.166Z,4836.00
2023-03-12T13:56:52.175Z,3128.00
2023-03-12T13:57:52.137Z,2792.00
2023-03-12T13:58:52.133Z,2268.00
2023-03-12T13:59:52.123Z,2052.00
2023-03-12T14:00:52.129Z,3184.00
2023-03-12T14:01:52.286Z,3728.00
2023-03-12T14:02:52.129Z,3176.00
2023-03-12T14:03:52.121Z,2736.00
2023-03-12T14:04:52.195Z,2196.00
2023-03-12T14:05:52.122Z,1904.00
2023-03-12T14:06:52.138Z,1828.00
2023-03-12T14:08:52.101Z,1524.00
2023-03-12T14:09:52.105Z,1180.00
2023-03-12T14:10:52.094Z,988.00
2023-03-12T14:11:52.118Z,1004.00
2023-03-12T14:12:52.145Z,1080.00
2023-03-12T14:13:52.163Z,1124.00
2023-03-12T14:14:52.081Z,1104.00
2023-03-12T14:15:52.120Z,948.00
2023-03-12T14:16:52.094Z,848.00
2023-03-12T14:17:52.105Z,924.00
2023-03-12T14:18:52.106Z,924.00
2023-03-12T14:19:52.073Z,948.00
2023-03-12T14:20:52.070Z,924.00
2023-03-12T14:21:52.130Z,956.00
2023-03-12T14:22:52.071Z,972.00
2023-03-12T14:23:52.070Z,1132.00
2023-03-12T14:24:52.049Z,1180.00
2023-03-12T14:25:52.059Z,1148.00
2023-03-12T14:26:52.055Z,1208.00
2023-03-12T14:27:52.083Z,1180.00
2023-03-12T14:28:52.090Z,1284.00
2023-03-12T14:29:52.066Z,1180.00
2023-03-12T14:30:52.095Z,1080.00
2023-03-12T14:31:52.037Z,844.00
2023-03-12T14:32:52.162Z,748.00
2023-03-12T14:33:52.051Z,856.00
2023-03-12T14:34:52.027Z,880.00
2023-03-12T14:35:52.098Z,880.00
2023-03-12T14:36:52.027Z,924.00
2023-03-12T14:37:52.030Z,972.00
2023-03-12T14:38:52.197Z,1012.00
2023-03-12T14:39:52.019Z,952.00
2023-03-12T14:40:52.010Z,996.00
2023-03-12T14:41:52.006Z,1128.00
2023-03-12T14:42:51.999Z,968.00
2023-03-12T14:43:52.026Z,972.00
2023-03-12T14:44:52.061Z,784.00
2023-03-12T14:45:52.021Z,740.00
2023-03-12T14:46:52.092Z,732.00
2023-03-12T14:47:51.998Z,648.00
2023-03-12T14:48:52.006Z,676.00
2023-03-12T14:49:51.989Z,676.00
2023-03-12T14:50:52.009Z,824.00
2023-03-12T14:51:51.982Z,908.00
2023-03-12T14:52:51.969Z,864.00
2023-03-12T14:53:52.184Z,816.00
2023-03-12T14:54:51.986Z,792.00
2023-03-12T14:55:51.995Z,628.00
2023-03-12T14:56:51.957Z,564.00
2023-03-12T14:57:51.956Z,500.00
2023-03-12T14:58:51.959Z,452.00
2023-03-12T14:59:51.972Z,500.00
2023-03-12T15:00:52.013Z,568.00
2023-03-12T15:01:52.028Z,656.00
2023-03-12T15:02:51.941Z,656.00
2023-03-12T15:03:51.949Z,716.00
2023-03-12T15:04:54.231Z,680.00
2023-03-12T15:05:51.945Z,516.00
2023-03-12T15:06:51.924Z,480.00
2023-03-12T15:07:51.929Z,444.00
2023-03-12T15:08:51.936Z,564.00
2023-03-12T15:09:51.940Z,688.00
2023-03-12T15:10:51.930Z,812.00
2023-03-12T15:11:51.913Z,1148.00
2023-03-12T15:12:51.905Z,1464.00
2023-03-12T15:13:51.907Z,1544.00
2023-03-12T15:14:51.913Z,1572.00
2023-03-12T15:15:51.956Z,1584.00
2023-03-12T15:16:51.912Z,1412.00
2023-03-12T15:17:51.894Z,1180.00
2023-03-12T15:18:51.880Z,1004.00
2023-03-12T15:19:51.890Z,876.00
2023-03-12T15:20:51.893Z,780.00
2023-03-12T15:21:51.898Z,1048.00
2023-03-12T15:22:51.990Z,1152.00
2023-03-12T15:23:51.883Z,1048.00
2023-03-12T15:24:51.861Z,1152.00
2023-03-12T15:25:51.868Z,1148.00
2023-03-12T15:26:51.869Z,808.00
2023-03-12T15:27:51.860Z,744.00
2023-03-12T15:28:51.868Z,660.00
2023-03-12T15:29:51.854Z,612.00
2023-03-12T15:30:51.920Z,632.00
2023-03-12T15:31:51.848Z,876.00
2023-03-12T15:32:51.904Z,1320.00
2023-03-12T15:33:51.834Z,1544.00
2023-03-12T15:34:51.834Z,1328.00
2023-03-12T15:35:51.909Z,904.00
2023-03-12T15:36:51.868Z,632.00
2023-03-12T15:37:51.829Z,496.00
2023-03-12T15:38:51.853Z,496.00
2023-03-12T15:39:51.915Z,484.00
2023-03-12T15:40:51.829Z,508.00
2023-03-12T15:41:51.852Z,612.00
2023-03-12T15:42:51.809Z,672.00
2023-03-12T15:43:51.799Z,724.00
2023-03-12T15:44:51.824Z,672.00
2023-03-12T15:45:51.866Z,560.00
2023-03-12T15:46:51.912Z,628.00
2023-03-12T15:47:51.784Z,628.00
2023-03-12T15:48:51.810Z,580.00
2023-03-12T15:49:53.138Z,536.00
2023-03-12T15:50:51.791Z,512.00
2023-03-12T15:51:51.765Z,548.00
2023-03-12T15:52:51.767Z,560.00
2023-03-12T15:53:51.763Z,540.00
2023-03-12T15:54:51.769Z,588.00
2023-03-12T15:55:51.785Z,624.00
2023-03-12T15:56:51.760Z,652.00
2023-03-12T15:57:51.761Z,668.00
2023-03-12T15:58:51.753Z,672.00
2023-03-12T15:59:51.737Z,704.00
2023-03-12T16:00:51.790Z,740.00
2023-03-12T16:12:27.843Z,476.00
2023-03-12T16:13:27.777Z,492.00
2023-03-12T16:14:27.873Z,484.00
2023-03-12T16:15:27.794Z,456.00
2023-03-12T16:16:27.838Z,444.00
2023-03-12T16:17:27.747Z,444.00
2023-03-12T16:18:27.744Z,456.00
2023-03-12T16:19:27.949Z,476.00
2023-03-12T16:20:27.767Z,484.00
2023-03-12T16:21:27.741Z,472.00
2023-03-12T16:22:27.738Z,440.00
2023-03-12T16:23:27.739Z,396.00
2023-03-12T16:24:27.749Z,344.00
2023-03-12T16:25:27.724Z,304.00
2023-03-12T16:26:27.722Z,272.00
2023-03-12T16:27:32.741Z,256.00
2023-03-12T16:28:27.736Z,240.00
2023-03-12T16:29:27.729Z,224.00
2023-03-12T16:30:27.715Z,216.00
2023-03-12T16:31:27.742Z,216.00
2023-03-12T16:32:27.730Z,204.00
2023-03-12T16:33:27.698Z,192.00
2023-03-12T16:34:27.679Z,192.00
2023-03-12T16:35:27.771Z,188.00
2023-03-12T16:36:27.671Z,188.00
2023-03-12T16:37:27.695Z,184.00
2023-03-12T16:38:27.669Z,188.00
2023-03-12T16:39:27.684Z,196.00
2023-03-12T16:40:33.701Z,200.00
2023-03-12T16:41:27.642Z,208.00
2023-03-12T16:42:27.651Z,212.00
2023-03-12T16:43:27.659Z,220.00
2023-03-12T16:44:27.680Z,232.00
2023-03-12T16:45:27.636Z,248.00
2023-03-12T16:46:27.670Z,248.00
2023-03-12T16:47:27.637Z,240.00
2023-03-12T16:48:27.730Z,220.00
2023-03-12T16:49:27.612Z,204.00